Terminal Aerodrome Forecast
Issued by NWS Charleston, WV

Current Version | Previous Version | Text Only | Print | Product List | Glossary Off
Versions: 1 2 3 4 5 6 7 8 9 10 11 12 13 14 15 16 17 18 19 20 21 22 23 24

000
FTUS41 KRLX 180200 AAA
TAFCRW
TAF AMD
KCRW 180216Z 1802/1824 VRB03KT P6SM SCT040 BKN250
     FM180700 00000KT 4SM BR FEW002 SCT040
     FM180900 00000KT 2SM BR SCT002
     FM181100 00000KT 4SM BR BKN010
     FM181300 VRB03KT 6SM HZ SCT020
     FM181600 02004KT P6SM SKC=

USA.gov is the U.S. government's official web portal to all federal, state and local government web resources and services.